createdAt,value
2023-06-08T00:01:48.001Z,98777.66
2023-06-08T00:04:19.789Z,98761.31
2023-06-08T00:06:51.015Z,98768.25
2023-06-08T00:09:18.214Z,98770.75
2023-06-08T00:11:45.237Z,98767.22
2023-06-08T00:14:12.247Z,98766.38
2023-06-08T00:16:40.727Z,98770.25
2023-06-08T00:19:08.643Z,98759.22
2023-06-08T00:21:38.416Z,98760.97
2023-06-08T00:24:06.404Z,98765.09
2023-06-08T00:26:33.440Z,98758.78
2023-06-08T00:29:00.482Z,98767.28
2023-06-08T00:31:27.509Z,98758.16
2023-06-08T00:33:54.611Z,98751.66
2023-06-08T00:36:21.688Z,98761.72
2023-06-08T00:38:50.495Z,98761.66
2023-06-08T00:41:17.474Z,98759.00
2023-06-08T00:43:45.727Z,98759.16
2023-06-08T00:46:15.195Z,98753.66
2023-06-08T00:48:42.473Z,98753.56
2023-06-08T00:51:12.634Z,98741.59
2023-06-08T00:53:41.144Z,98747.47
2023-06-08T00:56:10.309Z,98753.81
2023-06-08T00:58:38.645Z,98756.34
2023-06-08T01:01:12.449Z,98747.00
2023-06-08T01:03:40.404Z,98746.69
2023-06-08T01:06:09.525Z,98738.06
2023-06-08T01:08:54.023Z,98744.19
2023-06-08T01:11:46.540Z,98749.47
2023-06-08T01:14:20.854Z,98751.75
2023-06-08T01:16:52.683Z,98741.31
2023-06-08T01:19:35.020Z,98745.38
2023-06-08T01:22:11.737Z,98744.84
2023-06-08T01:24:51.355Z,98727.63
2023-06-08T01:27:21.013Z,98731.94
2023-06-08T01:29:49.459Z,98737.59
2023-06-08T01:32:16.926Z,98734.19
2023-06-08T01:34:44.003Z,98733.44
2023-06-08T01:37:16.192Z,98734.13
2023-06-08T01:39:56.546Z,98733.78
2023-06-08T01:42:26.989Z,98731.34
2023-06-08T01:44:58.247Z,98732.38
2023-06-08T01:47:29.936Z,98728.69
2023-06-08T01:50:00.078Z,98731.75
2023-06-08T01:52:27.371Z,98736.34
2023-06-08T01:54:56.064Z,98743.34
2023-06-08T01:57:23.432Z,98738.41
2023-06-08T01:59:50.550Z,98738.06
2023-06-08T02:02:17.757Z,98748.53
2023-06-08T02:04:44.836Z,98741.69
2023-06-08T02:07:12.355Z,98743.19
2023-06-08T02:09:40.022Z,98744.44
2023-06-08T02:12:09.702Z,98745.09
2023-06-08T02:14:36.979Z,98743.78
2023-06-08T02:17:04.982Z,98746.34
2023-06-08T02:19:33.030Z,98739.38
2023-06-08T02:22:00.986Z,98734.13
2023-06-08T02:24:28.181Z,98733.53
2023-06-08T02:26:56.095Z,98729.84
2023-06-08T02:29:29.137Z,98732.66
2023-06-08T02:31:56.312Z,98735.69
2023-06-08T02:34:24.382Z,98739.06
2023-06-08T02:36:51.450Z,98741.88
2023-06-08T02:39:19.996Z,98735.16
2023-06-08T02:41:46.967Z,98738.63
2023-06-08T02:44:14.042Z,98740.09
2023-06-08T02:46:43.812Z,98744.69
2023-06-08T02:49:14.695Z,98747.03
2023-06-08T02:51:43.566Z,98748.81
2023-06-08T02:54:10.641Z,98740.19
2023-06-08T02:56:37.800Z,98746.59
2023-06-08T02:59:07.432Z,98746.59
2023-06-08T03:01:38.173Z,98750.97
2023-06-08T03:04:18.606Z,98756.94
2023-06-08T03:06:55.001Z,98756.94
2023-06-08T03:09:24.786Z,98757.97
2023-06-08T03:11:53.568Z,98758.72
2023-06-08T03:14:22.419Z,98763.91
2023-06-08T03:16:49.523Z,98755.25
2023-06-08T03:19:18.298Z,98756.28
2023-06-08T03:21:50.901Z,98750.31
2023-06-08T03:24:21.840Z,98755.47
2023-06-08T03:26:50.649Z,98753.25
2023-06-08T03:29:17.996Z,98752.88
2023-06-08T03:31:45.225Z,98754.13
2023-06-08T03:34:18.359Z,98761.22
2023-06-08T03:36:46.099Z,98754.88
2023-06-08T03:39:18.908Z,98757.72
2023-06-08T03:41:46.276Z,98748.09
2023-06-08T03:44:15.522Z,98755.34
2023-06-08T03:46:42.652Z,98756.81
2023-06-08T03:49:10.237Z,98756.44
2023-06-08T03:51:38.767Z,98761.72
2023-06-08T03:54:06.496Z,98761.06
2023-06-08T03:56:33.577Z,98764.06
2023-06-08T03:59:03.367Z,98766.19
2023-06-08T04:01:31.772Z,98765.59
2023-06-08T04:03:59.383Z,98768.16
2023-06-08T04:06:34.735Z,98766.31
2023-06-08T04:09:06.166Z,98766.00
2023-06-08T04:11:34.362Z,98766.97
2023-06-08T04:14:02.250Z,98766.75
2023-06-08T04:16:29.431Z,98768.00
2023-06-08T04:18:59.428Z,98763.03
2023-06-08T04:21:28.370Z,98760.78
2023-06-08T04:24:01.831Z,98759.38
2023-06-08T04:26:33.853Z,98769.47
2023-06-08T04:29:04.942Z,98776.75
2023-06-08T04:31:35.189Z,98782.72
2023-06-08T04:34:02.812Z,98789.00
2023-06-08T04:36:31.877Z,98782.53
2023-06-08T04:38:59.454Z,98788.66
2023-06-08T04:41:30.703Z,98787.16
2023-06-08T04:44:03.080Z,98788.22
2023-06-08T04:46:31.961Z,98788.41
2023-06-08T04:48:59.974Z,98782.72
2023-06-08T04:51:31.234Z,98784.09
2023-06-08T04:54:00.666Z,98791.88
2023-06-08T04:56:30.863Z,98795.53
2023-06-08T04:58:58.152Z,98793.16
2023-06-08T05:01:26.800Z,98791.78
2023-06-08T05:03:53.900Z,98788.78
2023-06-08T05:06:22.012Z,98780.31
2023-06-08T05:08:48.980Z,98793.09
2023-06-08T05:11:16.065Z,98791.38
2023-06-08T05:13:43.083Z,98797.94
2023-06-08T05:16:11.921Z,98791.69
2023-06-08T05:18:40.622Z,98798.47
2023-06-08T05:21:07.622Z,98802.13
2023-06-08T05:23:35.892Z,98811.50
2023-06-08T05:26:02.931Z,98808.13
2023-06-08T05:28:29.984Z,98816.97
2023-06-08T05:30:57.411Z,98807.31
2023-06-08T05:33:24.551Z,98798.41
2023-06-08T05:35:52.973Z,98803.09
2023-06-08T05:38:21.327Z,98803.09
2023-06-08T05:40:48.821Z,98801.47
2023-06-08T05:43:16.054Z,98796.97
2023-06-08T05:45:43.237Z,98800.03
2023-06-08T05:48:10.461Z,98791.28
2023-06-08T05:50:37.746Z,98792.09
2023-06-08T05:53:07.290Z,98796.31
2023-06-08T05:55:34.415Z,98799.16
2023-06-08T05:58:01.610Z,98802.00
2023-06-08T06:00:29.227Z,98807.13
2023-06-08T06:02:56.402Z,98806.19
2023-06-08T06:05:23.569Z,98809.75
2023-06-08T06:07:52.597Z,98807.06
2023-06-08T06:10:21.265Z,98810.63
2023-06-08T06:12:48.718Z,98803.97
2023-06-08T06:15:15.859Z,98811.75
2023-06-08T06:17:43.507Z,98820.22
2023-06-08T06:20:11.211Z,98825.63
2023-06-08T06:22:38.259Z,98823.13
2023-06-08T06:25:09.768Z,98821.69
2023-06-08T06:27:47.365Z,98820.66
2023-06-08T06:30:15.525Z,98815.41
2023-06-08T06:32:42.682Z,98823.03
2023-06-08T06:35:11.551Z,98818.19
2023-06-08T06:37:38.976Z,98817.00
2023-06-08T06:40:10.921Z,98817.53
2023-06-08T06:42:40.379Z,98809.88
2023-06-08T06:45:18.378Z,98811.38
2023-06-08T06:47:45.662Z,98815.28
2023-06-08T06:50:12.786Z,98806.41
2023-06-08T06:52:39.909Z,98797.13
2023-06-08T06:55:07.329Z,98797.44
2023-06-08T06:57:35.332Z,98790.59
2023-06-08T07:00:09.209Z,98795.66
2023-06-08T07:02:38.766Z,98781.59
2023-06-08T07:05:09.468Z,98785.06
2023-06-08T07:07:37.024Z,98780.63
2023-06-08T07:10:05.051Z,98781.00
2023-06-08T07:12:32.353Z,98784.69
2023-06-08T07:14:59.387Z,98787.78
2023-06-08T07:17:30.825Z,98785.53
2023-06-08T07:19:59.501Z,98787.56
2023-06-08T07:23:03.987Z,98789.25
2023-06-08T07:25:56.128Z,98782.88
2023-06-08T07:28:04.974Z,98773.91
2023-06-08T07:30:33.937Z,98768.66
2023-06-08T07:33:02.993Z,98777.72
2023-06-08T07:35:31.986Z,98768.44
2023-06-08T07:37:59.431Z,98769.03
2023-06-08T07:40:26.527Z,98764.56
2023-06-08T07:42:53.614Z,98773.81
2023-06-08T07:45:20.689Z,98772.78
2023-06-08T07:47:47.847Z,98768.44
2023-06-08T07:50:16.385Z,98765.06
2023-06-08T07:52:46.464Z,98771.38
2023-06-08T07:55:14.560Z,98767.13
2023-06-08T07:57:44.946Z,98769.41
2023-06-08T08:00:13.688Z,98772.53
2023-06-08T08:02:40.862Z,98778.44
2023-06-08T08:05:11.700Z,98775.81
2023-06-08T08:07:41.676Z,98771.91
2023-06-08T08:10:09.827Z,98768.72
2023-06-08T08:12:37.563Z,98770.91
2023-06-08T08:15:05.802Z,98770.59
2023-06-08T08:17:32.878Z,98773.56
2023-06-08T08:20:00.058Z,98757.03
2023-06-08T08:22:27.191Z,98759.91
2023-06-08T08:24:55.547Z,98754.81
2023-06-08T08:27:22.547Z,98764.59
2023-06-08T08:29:49.726Z,98740.72
2023-06-08T08:32:16.829Z,98756.66
2023-06-08T08:34:43.842Z,98757.28
2023-06-08T08:37:10.863Z,98750.13
2023-06-08T08:39:37.917Z,98751.97
2023-06-08T08:42:13.158Z,98761.31
2023-06-08T08:44:43.330Z,98748.44
2023-06-08T08:47:14.557Z,98753.28
2023-06-08T08:49:44.276Z,98749.56
2023-06-08T08:52:14.900Z,98748.00
2023-06-08T08:54:43.532Z,98749.84
2023-06-08T08:57:13.273Z,98739.91
2023-06-08T08:59:42.055Z,98736.19
2023-06-08T09:02:09.744Z,98745.38
2023-06-08T09:04:36.826Z,98746.72
2023-06-08T09:07:04.563Z,98734.94
2023-06-08T09:09:31.854Z,98746.91
2023-06-08T09:11:59.893Z,98736.34
2023-06-08T09:14:29.056Z,98741.16
2023-06-08T09:16:57.122Z,98737.56
2023-06-08T09:19:26.444Z,98749.94
2023-06-08T09:21:53.646Z,98743.16
2023-06-08T09:24:23.977Z,98749.19
2023-06-08T09:26:53.125Z,98747.25
2023-06-08T09:29:39.413Z,98744.94
2023-06-08T09:32:07.875Z,98745.31
2023-06-08T09:34:50.392Z,98745.34
2023-06-08T09:37:17.662Z,98748.25
2023-06-08T09:39:46.723Z,98738.47
2023-06-08T09:42:13.903Z,98741.47
2023-06-08T09:44:42.398Z,98738.78
2023-06-08T09:47:26.797Z,98741.78
2023-06-08T09:49:54.941Z,98727.25
2023-06-08T09:52:23.787Z,98727.28
2023-06-08T09:54:51.945Z,98726.34
2023-06-08T09:57:22.070Z,98717.56
2023-06-08T09:59:57.601Z,98726.91
2023-06-08T10:02:30.814Z,98714.06
2023-06-08T10:05:02.356Z,98715.50
2023-06-08T10:07:36.889Z,98717.50
2023-06-08T10:10:05.750Z,98702.13
2023-06-08T10:12:33.834Z,98707.00
2023-06-08T10:15:03.542Z,98710.53
2023-06-08T10:17:31.385Z,98702.41
2023-06-08T10:20:00.124Z,98692.91
2023-06-08T10:22:29.226Z,98680.72
2023-06-08T10:25:09.197Z,98676.94
2023-06-08T10:27:40.155Z,98675.50
2023-06-08T10:30:09.661Z,98678.72
2023-06-08T10:32:38.267Z,98687.31
2023-06-08T10:35:07.829Z,98671.13
2023-06-08T10:37:39.658Z,98674.09
2023-06-08T10:40:11.720Z,98671.78
2023-06-08T10:42:39.118Z,98665.69
2023-06-08T10:45:09.250Z,98667.31
2023-06-08T10:47:38.063Z,98663.06
2023-06-08T10:50:07.702Z,98662.75
2023-06-08T10:52:45.336Z,98666.47
2023-06-08T10:55:14.311Z,98653.97
2023-06-08T10:57:42.943Z,98635.94
2023-06-08T11:00:44.223Z,98659.59
2023-06-08T11:03:16.922Z,98638.25
2023-06-08T11:05:47.103Z,98647.06
2023-06-08T11:08:14.171Z,98646.69
2023-06-08T11:10:41.602Z,98646.88
2023-06-08T11:13:10.072Z,98642.41
2023-06-08T11:15:38.425Z,98638.06
2023-06-08T11:18:09.573Z,98632.63
2023-06-08T11:20:41.070Z,98633.28
2023-06-08T11:23:11.591Z,98643.88
2023-06-08T11:25:39.883Z,98628.31
2023-06-08T11:28:09.251Z,98631.31
2023-06-08T11:30:36.513Z,98623.25
2023-06-08T11:33:05.699Z,98623.59
2023-06-08T11:35:37.480Z,98619.16
2023-06-08T11:38:04.892Z,98617.25
2023-06-08T11:40:33.381Z,98620.44
2023-06-08T11:43:02.060Z,98619.34
2023-06-08T11:45:29.825Z,98619.63
2023-06-08T11:48:15.325Z,98609.31
2023-06-08T11:50:52.294Z,98605.69
2023-06-08T11:53:24.814Z,98606.56
2023-06-08T11:55:53.636Z,98606.34
2023-06-08T11:58:29.629Z,98603.03
2023-06-08T12:01:08.980Z,98605.13
2023-06-08T12:03:46.860Z,98597.91
2023-06-08T12:06:17.278Z,98593.91
2023-06-08T12:08:44.553Z,98588.09
2023-06-08T12:11:13.043Z,98600.06
2023-06-08T12:13:43.296Z,98595.13
2023-06-08T12:16:14.103Z,98600.53
2023-06-08T12:18:42.494Z,98598.06
2023-06-08T12:21:15.461Z,98591.59
2023-06-08T12:23:45.309Z,98590.13
2023-06-08T12:26:13.369Z,98596.88
2023-06-08T12:28:40.433Z,98583.75
2023-06-08T12:31:07.674Z,98586.28
2023-06-08T12:33:35.377Z,98592.00
2023-06-08T12:36:02.643Z,98590.03
2023-06-08T12:38:29.788Z,98592.03
2023-06-08T12:40:58.293Z,98582.75
2023-06-08T12:43:26.560Z,98581.19
2023-06-08T12:45:55.703Z,98582.53
2023-06-08T12:48:23.720Z,98576.34
2023-06-08T12:50:50.841Z,98581.00
2023-06-08T12:53:17.968Z,98576.69
2023-06-08T12:55:45.237Z,98567.50
2023-06-08T12:58:13.930Z,98564.53
2023-06-08T13:00:40.915Z,98567.06
2023-06-08T13:03:08.809Z,98562.19
2023-06-08T13:05:36.586Z,98565.16
2023-06-08T13:08:08.449Z,98556.94
2023-06-08T13:10:36.775Z,98555.34
2023-06-08T13:13:04.294Z,98553.38
2023-06-08T13:15:32.964Z,98550.19
2023-06-08T13:18:00.606Z,98540.94
2023-06-08T13:20:27.979Z,98541.53
2023-06-08T13:22:55.034Z,98532.34
2023-06-08T13:25:22.309Z,98538.16
2023-06-08T13:27:50.289Z,98532.41
2023-06-08T13:30:17.765Z,98527.63
2023-06-08T13:32:46.846Z,98523.59
2023-06-08T13:35:14.499Z,98525.03
2023-06-08T13:37:42.197Z,98525.38
2023-06-08T13:40:12.350Z,98516.63
2023-06-08T13:42:40.718Z,98521.84
2023-06-08T13:45:12.963Z,98524.59
2023-06-08T13:47:42.379Z,98532.00
2023-06-08T13:50:12.001Z,98523.00
2023-06-08T13:52:39.506Z,98520.91
2023-06-08T13:55:07.037Z,98517.59
2023-06-08T13:57:34.486Z,98512.31
2023-06-08T14:00:03.979Z,98512.75
2023-06-08T14:02:39.625Z,98511.22
2023-06-08T14:05:07.969Z,98503.47
2023-06-08T14:07:36.887Z,98501.28
2023-06-08T14:10:07.394Z,98505.16
2023-06-08T14:12:34.822Z,98506.75
2023-06-08T14:15:01.962Z,98493.63
2023-06-08T14:17:29.805Z,98487.09
2023-06-08T14:19:57.086Z,98484.25
2023-06-08T14:22:24.161Z,98476.41
2023-06-08T14:24:52.778Z,98482.56
2023-06-08T14:27:19.756Z,98474.31
2023-06-08T14:29:46.762Z,98468.47
2023-06-08T14:32:14.249Z,98468.78
2023-06-08T14:34:41.335Z,98472.69
2023-06-08T14:37:08.313Z,98469.25
2023-06-08T14:39:37.482Z,98471.00
2023-06-08T14:42:09.917Z,98473.47
2023-06-08T14:44:37.012Z,98465.47
2023-06-08T14:47:04.647Z,98464.09
2023-06-08T14:49:36.882Z,98455.59
2023-06-08T14:52:05.577Z,98455.03
2023-06-08T14:54:32.663Z,98461.09
2023-06-08T14:57:00.026Z,98449.56
2023-06-08T14:59:28.796Z,98448.03
2023-06-08T15:01:56.524Z,98442.41
2023-06-08T15:04:25.175Z,98441.88
2023-06-08T15:06:52.469Z,98440.53
2023-06-08T15:09:19.701Z,98439.75
2023-06-08T15:11:46.885Z,98438.81
2023-06-08T15:14:13.898Z,98436.00
2023-06-08T15:16:42.666Z,98425.50
2023-06-08T15:19:09.709Z,98434.47
2023-06-08T15:21:37.249Z,98423.75
2023-06-08T15:36:50.802Z,98428.28
2023-06-08T15:39:17.882Z,98421.44
2023-06-08T15:41:44.979Z,98413.72
2023-06-08T15:44:11.960Z,98415.22
2023-06-08T15:46:39.045Z,98407.03
2023-06-08T15:49:06.101Z,98413.03
2023-06-08T15:51:33.629Z,98409.84
2023-06-08T15:54:03.498Z,98410.56
2023-06-08T15:56:30.637Z,98414.66
2023-06-08T15:58:57.676Z,98411.69
2023-06-08T16:01:24.846Z,98413.47
2023-06-08T16:03:52.194Z,98414.28
2023-06-08T16:06:19.273Z,98416.31
2023-06-08T16:08:46.492Z,98418.81
2023-06-08T16:11:15.089Z,98417.28
2023-06-08T16:13:42.087Z,98416.56
2023-06-08T16:16:09.166Z,98411.81
2023-06-08T16:18:36.311Z,98422.16
2023-06-08T16:21:03.591Z,98425.56
2023-06-08T16:23:30.708Z,98423.09
2023-06-08T16:25:57.889Z,98417.50
2023-06-08T16:28:26.340Z,98424.97
2023-06-08T16:30:53.388Z,98429.91
2023-06-08T16:33:20.533Z,98428.19
2023-06-08T16:35:49.935Z,98426.34
2023-06-08T16:38:19.395Z,98428.47
2023-06-08T16:40:46.416Z,98435.84
2023-06-08T16:43:13.511Z,98433.69
2023-06-08T16:45:43.583Z,98436.47
2023-06-08T16:48:11.957Z,98425.94
2023-06-08T16:50:40.250Z,98441.69
2023-06-08T16:53:07.334Z,98435.91
2023-06-08T16:55:34.392Z,98426.94
2023-06-08T16:58:01.572Z,98425.72
2023-06-08T17:00:28.791Z,98424.00
2023-06-08T17:02:57.293Z,98437.28
2023-06-08T17:05:24.348Z,98428.13
2023-06-08T17:07:51.589Z,98436.41
2023-06-08T17:10:18.651Z,98432.06
2023-06-08T17:12:45.694Z,98434.03
2023-06-08T17:15:12.933Z,98444.41
2023-06-08T17:17:39.986Z,98439.41
2023-06-08T17:20:10.108Z,98446.78
2023-06-08T17:22:37.211Z,98442.75
2023-06-08T17:25:05.095Z,98445.03
2023-06-08T17:27:32.538Z,98443.72
2023-06-08T17:30:00.249Z,98450.47
2023-06-08T17:32:27.880Z,98443.00
2023-06-08T17:34:55.127Z,98446.31
2023-06-08T17:37:24.823Z,98446.56
2023-06-08T17:39:52.336Z,98443.56
2023-06-08T17:42:19.559Z,98439.97
2023-06-08T17:44:46.604Z,98438.72
2023-06-08T17:47:13.620Z,98436.50
2023-06-08T17:49:42.974Z,98436.56
2023-06-08T17:52:10.110Z,98436.06
2023-06-08T17:54:38.560Z,98442.69
2023-06-08T17:57:06.621Z,98441.34
2023-06-08T17:59:33.755Z,98442.09
2023-06-08T18:02:01.343Z,98440.66
2023-06-08T18:04:28.305Z,98447.38
2023-06-08T18:06:55.357Z,98450.88
2023-06-08T18:09:26.059Z,98450.38
2023-06-08T18:11:57.297Z,98454.34
2023-06-08T18:14:24.377Z,98440.28
2023-06-08T18:16:51.470Z,98456.75
2023-06-08T18:19:18.516Z,98454.16
2023-06-08T18:21:45.904Z,98457.38
2023-06-08T18:24:13.027Z,98468.44
2023-06-08T18:26:40.136Z,98465.13
2023-06-08T18:29:08.915Z,98467.06
2023-06-08T18:31:37.552Z,98475.78
2023-06-08T18:34:05.486Z,98478.50
2023-06-08T18:36:32.753Z,98476.22
2023-06-08T18:38:59.802Z,98481.53
2023-06-08T18:41:27.017Z,98484.03
2023-06-08T18:43:54.142Z,98488.59
2023-06-08T18:46:22.666Z,98482.66
2023-06-08T18:48:49.687Z,98487.50
2023-06-08T18:51:16.753Z,98492.31
2023-06-08T18:53:43.780Z,98496.94
2023-06-08T18:56:10.786Z,98495.19
2023-06-08T18:58:37.838Z,98500.19
2023-06-08T19:01:05.354Z,98506.28
2023-06-08T19:03:34.109Z,98502.66
2023-06-08T19:06:01.369Z,98501.94
2023-06-08T19:08:28.361Z,98505.69
2023-06-08T19:10:55.360Z,98506.03
2023-06-08T19:13:39.835Z,98510.84
2023-06-08T19:16:10.158Z,98507.81
2023-06-08T19:18:38.980Z,98519.09
2023-06-08T19:21:06.019Z,98515.56
2023-06-08T19:23:33.045Z,98515.34
2023-06-08T19:26:00.125Z,98519.06
2023-06-08T19:28:27.196Z,98512.06
2023-06-08T19:30:54.357Z,98518.34
2023-06-08T19:33:21.400Z,98522.03
2023-06-08T19:35:49.886Z,98520.06
2023-06-08T19:38:16.935Z,98525.84
2023-06-08T19:40:44.528Z,98525.31
2023-06-08T19:43:11.546Z,98522.47
2023-06-08T19:45:38.624Z,98532.97
2023-06-08T19:48:06.644Z,98533.78
2023-06-08T19:50:33.886Z,98538.34
2023-06-08T19:53:02.333Z,98532.69
2023-06-08T19:55:29.319Z,98535.06
2023-06-08T19:57:56.324Z,98535.09
2023-06-08T20:00:23.597Z,98533.03
2023-06-08T20:02:50.796Z,98533.06
2023-06-08T20:05:19.744Z,98536.03
2023-06-08T20:07:47.188Z,98529.00
2023-06-08T20:10:15.658Z,98522.03
2023-06-08T20:12:42.622Z,98526.81
2023-06-08T20:15:10.361Z,98531.25
2023-06-08T20:17:37.441Z,98539.38
2023-06-08T20:20:06.357Z,98529.78
2023-06-08T20:22:34.478Z,98536.03
2023-06-08T20:25:01.841Z,98539.28
2023-06-08T20:27:31.074Z,98539.84
2023-06-08T20:29:58.675Z,98549.25
2023-06-08T20:32:25.834Z,98551.34
2023-06-08T20:34:52.854Z,98546.91
2023-06-08T20:37:19.948Z,98551.88
2023-06-08T20:39:47.141Z,98545.63
2023-06-08T20:42:14.303Z,98556.56
2023-06-08T20:44:43.010Z,98561.28
2023-06-08T20:47:10.037Z,98563.91
2023-06-08T20:49:37.117Z,98560.28
2023-06-08T20:52:05.977Z,98563.66
2023-06-08T20:54:33.409Z,98558.16
2023-06-08T20:57:00.700Z,98557.19
2023-06-08T20:59:27.814Z,98561.91
2023-06-08T21:01:56.317Z,98560.31
2023-06-08T21:04:30.522Z,98565.00
2023-06-08T21:06:57.757Z,98567.09
2023-06-08T21:09:27.574Z,98559.53
2023-06-08T21:11:58.030Z,98564.25
2023-06-08T21:14:25.250Z,98572.34
2023-06-08T21:16:53.973Z,98567.97
2023-06-08T21:19:22.708Z,98569.81
2023-06-08T21:21:49.779Z,98564.84
2023-06-08T21:24:16.780Z,98568.53
2023-06-08T21:26:44.289Z,98561.78
2023-06-08T21:29:11.322Z,98554.25
2023-06-08T21:31:38.706Z,98555.31
2023-06-08T21:34:05.756Z,98568.59
2023-06-08T21:36:34.186Z,98560.03
2023-06-08T21:39:01.172Z,98562.66
2023-06-08T21:41:28.232Z,98558.50
2023-06-08T21:43:55.308Z,98556.97
2023-06-08T21:46:22.379Z,98560.09
2023-06-08T21:48:49.590Z,98556.69
2023-06-08T21:51:17.117Z,98556.69
2023-06-08T21:53:45.567Z,98559.56
2023-06-08T21:56:12.860Z,98556.44
2023-06-08T21:58:39.933Z,98556.97
2023-06-08T22:01:07.090Z,98559.03
2023-06-08T22:03:34.366Z,98559.03
2023-06-08T22:06:01.494Z,98563.72
2023-06-08T22:08:28.548Z,98564.47
2023-06-08T22:10:57.064Z,98566.28
2023-06-08T22:13:25.790Z,98563.41
2023-06-08T22:15:53.682Z,98558.22
2023-06-08T22:18:20.819Z,98560.00
2023-06-08T22:20:49.041Z,98559.97
2023-06-08T22:23:17.206Z,98561.00
2023-06-08T22:25:44.340Z,98559.94
2023-06-08T22:28:21.898Z,98556.81
2023-06-08T22:30:49.275Z,98560.41
2023-06-08T22:33:17.120Z,98549.72
2023-06-08T22:35:44.557Z,98552.59
2023-06-08T22:38:11.665Z,98558.28
2023-06-08T22:40:38.830Z,98556.19
2023-06-08T22:43:06.209Z,98560.03
2023-06-08T22:45:34.756Z,98559.75
2023-06-08T22:48:01.866Z,98547.25
2023-06-08T22:50:29.865Z,98558.13
2023-06-08T22:52:59.580Z,98553.97
2023-06-08T22:55:27.128Z,98549.03
2023-06-08T22:57:54.379Z,98553.44
2023-06-08T23:00:21.786Z,98554.97
2023-06-08T23:02:51.118Z,98549.78
2023-06-08T23:05:18.461Z,98538.84
2023-06-08T23:07:47.201Z,98543.19
2023-06-08T23:10:15.619Z,98536.94
2023-06-08T23:12:44.048Z,98527.06
2023-06-08T23:15:14.537Z,98522.09
2023-06-08T23:17:41.955Z,98529.31
2023-06-08T23:20:12.237Z,98524.63
2023-06-08T23:22:39.331Z,98517.84
2023-06-08T23:25:08.055Z,98517.81
2023-06-08T23:27:35.550Z,98519.84
2023-06-08T23:30:03.145Z,98516.16
2023-06-08T23:32:31.262Z,98520.84
2023-06-08T23:34:58.478Z,98515.63
2023-06-08T23:37:27.005Z,98509.91
2023-06-08T23:39:54.197Z,98504.69
2023-06-08T23:42:21.170Z,98504.88
2023-06-08T23:45:03.366Z,98510.56
2023-06-08T23:47:30.577Z,98517.03
2023-06-08T23:49:57.651Z,98498.59
2023-06-08T23:52:26.534Z,98508.69
2023-06-08T23:54:53.574Z,98505.56
2023-06-08T23:57:23.139Z,98499.34
2023-06-08T23:59:50.590Z,98493.09
